createdAt,value
2018-01-11T00:01:13.081Z,9.24
2018-01-11T00:03:40.501Z,9.25
2018-01-11T00:06:07.929Z,9.27
2018-01-11T00:08:35.345Z,9.25
2018-01-11T00:11:02.778Z,9.24
2018-01-11T00:13:30.186Z,9.27
2018-01-11T00:15:57.616Z,9.26
2018-01-11T00:18:25.022Z,9.23
2018-01-11T00:20:52.442Z,9.26
2018-01-11T00:23:19.849Z,9.27
2018-01-11T00:25:47.257Z,9.29
2018-01-11T00:28:14.698Z,9.23
2018-01-11T00:30:42.103Z,9.17
2018-01-11T00:33:09.538Z,9.14
2018-01-11T00:35:36.949Z,9.13
2018-01-11T00:38:04.354Z,9.11
2018-01-11T00:40:31.769Z,9.13
2018-01-11T00:42:59.169Z,9.12
2018-01-11T00:45:26.609Z,9.12
2018-01-11T00:47:54.005Z,9.14
2018-01-11T00:50:21.417Z,9.18
2018-01-11T00:52:48.827Z,9.16
2018-01-11T00:55:16.234Z,9.11
2018-01-11T00:57:43.669Z,9.01
2018-01-11T01:00:11.080Z,8.97
2018-01-11T01:02:38.738Z,8.91
2018-01-11T01:05:06.142Z,8.82
2018-01-11T01:07:33.545Z,8.76
2018-01-11T01:10:00.989Z,8.68
2018-01-11T01:12:28.389Z,8.63
2018-01-11T01:14:55.794Z,8.62
2018-01-11T01:17:23.205Z,8.58
2018-01-11T01:19:50.621Z,8.48
2018-01-11T01:22:18.039Z,8.38
2018-01-11T01:24:45.437Z,8.23
2018-01-11T01:27:12.841Z,8.20
2018-01-11T01:29:40.253Z,8.19
2018-01-11T01:32:07.664Z,8.21
2018-01-11T01:34:35.073Z,8.25
2018-01-11T01:37:02.506Z,8.29
2018-01-11T01:39:29.945Z,8.33
2018-01-11T01:41:57.345Z,8.37
2018-01-11T01:44:24.757Z,8.39
2018-01-11T01:46:52.173Z,8.49
2018-01-11T01:49:19.583Z,8.52
2018-01-11T01:51:47.009Z,8.54
2018-01-11T01:54:14.413Z,8.57
2018-01-11T01:56:41.821Z,8.62
2018-01-11T01:59:09.233Z,8.62
2018-01-11T02:01:36.637Z,8.64
2018-01-11T02:04:04.049Z,8.67
2018-01-11T02:06:31.452Z,8.69
2018-01-11T02:08:58.870Z,8.71
2018-01-11T02:11:26.277Z,8.72
2018-01-11T02:13:53.694Z,8.73
2018-01-11T02:16:21.133Z,8.74
2018-01-11T02:18:48.538Z,8.76
2018-01-11T02:21:15.946Z,8.76
2018-01-11T02:23:43.548Z,8.78
2018-01-11T02:26:10.965Z,8.80
2018-01-11T02:28:38.402Z,8.83
2018-01-11T02:31:05.809Z,8.84
2018-01-11T02:33:33.217Z,8.81
2018-01-11T02:36:00.634Z,8.78
2018-01-11T02:38:28.041Z,8.75
2018-01-11T02:40:55.515Z,8.81
2018-01-11T02:43:22.927Z,8.86
2018-01-11T02:45:50.337Z,8.89
2018-01-11T02:48:17.750Z,8.91
2018-01-11T02:50:45.163Z,8.92
2018-01-11T02:53:12.572Z,8.97
2018-01-11T02:55:39.978Z,8.98
2018-01-11T02:58:07.387Z,9.01
2018-01-11T03:00:34.826Z,8.95
2018-01-11T03:03:02.240Z,8.94
2018-01-11T03:05:29.638Z,8.95
2018-01-11T03:07:57.059Z,8.97
2018-01-11T03:10:24.492Z,8.94
2018-01-11T03:12:51.899Z,8.95
2018-01-11T03:15:19.311Z,8.94
2018-01-11T03:17:46.717Z,8.95
2018-01-11T03:20:14.129Z,8.94
2018-01-11T03:22:41.547Z,8.95
2018-01-11T03:25:08.970Z,8.92
2018-01-11T03:27:36.373Z,8.84
2018-01-11T03:30:03.816Z,8.80
2018-01-11T03:32:31.218Z,8.90
2018-01-11T03:34:58.649Z,8.93
2018-01-11T03:37:26.057Z,8.94
2018-01-11T03:39:53.468Z,8.82
2018-01-11T03:42:20.900Z,8.75
2018-01-11T03:44:48.310Z,8.68
2018-01-11T03:47:15.724Z,8.65
2018-01-11T03:49:43.126Z,8.68
2018-01-11T03:52:10.542Z,8.61
2018-01-11T03:54:39.202Z,8.52
2018-01-11T03:57:06.626Z,8.53
2018-01-11T03:59:34.025Z,8.63
2018-01-11T04:02:01.446Z,8.70
2018-01-11T04:04:28.848Z,8.68
2018-01-11T04:06:56.262Z,8.56
2018-01-11T04:09:23.677Z,8.50
2018-01-11T04:11:51.089Z,8.51
2018-01-11T04:14:18.513Z,8.54
2018-01-11T04:16:45.921Z,8.58
2018-01-11T04:19:13.337Z,8.66
2018-01-11T04:21:40.759Z,8.56
2018-01-11T04:24:08.187Z,8.48
2018-01-11T04:26:35.597Z,8.50
2018-01-11T04:29:03.014Z,8.52
2018-01-11T04:31:30.417Z,8.44
2018-01-11T04:33:57.833Z,8.41
2018-01-11T04:36:25.238Z,8.52
2018-01-11T04:38:52.658Z,8.54
2018-01-11T04:41:20.070Z,8.53
2018-01-11T04:43:47.481Z,8.54
2018-01-11T04:46:14.902Z,8.48
2018-01-11T04:48:42.333Z,8.38
2018-01-11T04:51:09.754Z,8.39
2018-01-11T04:53:37.168Z,8.33
2018-01-11T04:56:04.581Z,8.36
2018-01-11T04:58:31.997Z,8.51
2018-01-11T05:00:59.421Z,8.51
2018-01-11T05:03:26.833Z,8.56
2018-01-11T05:05:54.242Z,8.55
2018-01-11T05:08:21.687Z,8.53
2018-01-11T05:10:49.105Z,8.55
2018-01-11T05:13:16.509Z,8.57
2018-01-11T05:15:43.945Z,8.56
2018-01-11T05:18:11.357Z,8.58
2018-01-11T05:20:38.768Z,8.60
2018-01-11T05:23:06.181Z,8.59
2018-01-11T05:25:33.602Z,8.58
2018-01-11T05:28:01.009Z,8.62
2018-01-11T05:30:28.420Z,8.63
2018-01-11T05:32:55.833Z,8.67
2018-01-11T05:35:23.249Z,8.63
2018-01-11T05:37:50.661Z,8.65
2018-01-11T05:40:18.097Z,8.68
2018-01-11T05:42:45.517Z,8.65
2018-01-11T05:45:12.926Z,8.64
2018-01-11T05:47:40.345Z,8.58
2018-01-11T05:50:07.770Z,8.60
2018-01-11T05:52:35.202Z,8.60
2018-01-11T05:55:02.666Z,8.60
2018-01-11T05:57:30.087Z,8.61
2018-01-11T05:59:57.518Z,8.62
2018-01-11T06:02:24.954Z,8.57
2018-01-11T06:04:52.378Z,8.53
2018-01-11T06:07:19.786Z,8.58
2018-01-11T06:09:47.206Z,8.64
2018-01-11T06:12:14.633Z,8.66
2018-01-11T06:14:42.077Z,8.71
2018-01-11T06:17:09.497Z,8.67
2018-01-11T06:19:36.910Z,8.68
2018-01-11T06:22:04.349Z,8.67
2018-01-11T06:24:31.769Z,8.63
2018-01-11T06:26:59.192Z,8.58
2018-01-11T06:29:26.617Z,8.61
2018-01-11T06:31:54.041Z,8.70
2018-01-11T06:34:21.473Z,8.70
2018-01-11T06:36:59.167Z,8.74
2018-01-11T06:39:26.585Z,8.73
2018-01-11T06:41:54.002Z,8.71
2018-01-11T06:44:21.439Z,8.71
2018-01-11T06:46:48.885Z,8.68
2018-01-11T06:49:16.277Z,8.74
2018-01-11T06:51:43.701Z,8.79
2018-01-11T06:54:12.017Z,8.78
2018-01-11T06:56:39.457Z,8.79
2018-01-11T06:59:07.540Z,8.74
2018-01-11T07:01:34.973Z,8.74
2018-01-11T07:04:02.432Z,8.57
2018-01-11T07:06:30.421Z,8.52
2018-01-11T07:08:57.836Z,8.45
2018-01-11T07:11:25.276Z,8.49
2018-01-11T07:13:52.677Z,8.51
2018-01-11T07:16:20.150Z,8.60
2018-01-11T07:18:48.513Z,8.63
2018-01-11T07:21:15.955Z,8.65
2018-01-11T07:23:43.370Z,8.59
2018-01-11T07:26:10.805Z,8.47
2018-01-11T07:28:38.317Z,8.45
2018-01-11T07:31:05.747Z,8.40
2018-01-11T07:33:33.191Z,8.34
2018-01-11T07:36:00.624Z,8.39
2018-01-11T07:38:28.073Z,8.40
2018-01-11T07:40:55.489Z,8.40
2018-01-11T07:43:22.916Z,8.41
2018-01-11T07:45:50.374Z,8.38
2018-01-11T07:48:17.772Z,8.41
2018-01-11T07:50:45.226Z,8.39
2018-01-11T07:53:12.655Z,8.42
2018-01-11T07:55:40.117Z,8.50
2018-01-11T07:58:07.570Z,8.61
2018-01-11T08:00:35.005Z,8.66
2018-01-11T08:03:02.430Z,8.66
2018-01-11T08:05:29.854Z,8.68
2018-01-11T08:07:57.304Z,8.75
2018-01-11T08:10:24.749Z,8.78
2018-01-11T08:12:52.190Z,8.82
2018-01-11T08:15:19.612Z,8.86
2018-01-11T08:17:47.042Z,8.86
2018-01-11T08:20:15.270Z,8.88
2018-01-11T08:22:42.680Z,8.87
2018-01-11T08:25:10.105Z,8.77
2018-01-11T08:27:37.524Z,8.80
2018-01-11T08:30:04.973Z,8.89
2018-01-11T08:32:32.397Z,8.98
2018-01-11T08:34:59.822Z,9.03
2018-01-11T08:37:27.280Z,8.92
2018-01-11T08:39:54.693Z,8.93
2018-01-11T08:42:22.110Z,8.88
2018-01-11T08:44:49.530Z,8.85
2018-01-11T08:47:16.941Z,8.89
2018-01-11T08:49:44.377Z,8.88
2018-01-11T08:52:11.774Z,8.91
2018-01-11T08:54:39.182Z,8.86
2018-01-11T08:57:06.597Z,8.80
2018-01-11T08:59:34.012Z,8.94
2018-01-11T09:02:01.426Z,8.93
2018-01-11T09:04:28.838Z,9.03
2018-01-11T09:06:56.254Z,9.09
2018-01-11T09:09:23.674Z,9.08
2018-01-11T09:11:51.093Z,9.12
2018-01-11T09:14:18.505Z,9.06
2018-01-11T09:16:45.909Z,9.04
2018-01-11T09:19:13.322Z,9.02
2018-01-11T09:21:40.733Z,9.06
2018-01-11T09:24:08.150Z,9.13
2018-01-11T09:26:35.574Z,9.20
2018-01-11T09:29:03.004Z,9.25
2018-01-11T09:31:30.425Z,9.18
2018-01-11T09:33:57.858Z,9.32
2018-01-11T09:36:25.271Z,9.36
2018-01-11T09:38:52.695Z,9.33
2018-01-11T09:41:20.097Z,9.29
2018-01-11T09:43:47.505Z,9.21
2018-01-11T09:46:14.940Z,9.21
2018-01-11T09:48:42.347Z,9.24
2018-01-11T09:51:09.769Z,9.23
2018-01-11T09:53:37.169Z,9.35
2018-01-11T09:56:04.598Z,9.32
2018-01-11T09:58:32.005Z,9.52
2018-01-11T10:00:59.413Z,9.64
2018-01-11T10:03:26.834Z,9.70
2018-01-11T10:05:54.246Z,9.75
2018-01-11T10:08:21.689Z,9.88
2018-01-11T10:10:49.089Z,10.07
2018-01-11T10:13:16.522Z,10.22
2018-01-11T10:15:43.937Z,10.32
2018-01-11T10:18:11.368Z,10.28
2018-01-11T10:20:38.790Z,10.28
2018-01-11T10:23:06.202Z,10.41
2018-01-11T10:25:33.629Z,10.43
2018-01-11T10:28:01.041Z,10.54
2018-01-11T10:30:28.481Z,10.66
2018-01-11T10:32:55.902Z,10.54
2018-01-11T10:35:23.316Z,10.47
2018-01-11T10:37:50.734Z,10.43
2018-01-11T10:40:18.148Z,10.56
2018-01-11T10:42:45.574Z,10.73
2018-01-11T10:45:12.985Z,10.78
2018-01-11T10:47:40.416Z,10.86
2018-01-11T10:50:07.842Z,10.95
2018-01-11T10:52:35.257Z,10.99
2018-01-11T10:55:02.685Z,11.03
2018-01-11T10:57:30.113Z,11.10
2018-01-11T10:59:57.543Z,10.89
2018-01-11T11:02:30.620Z,10.98
2018-01-11T11:04:58.033Z,11.06
2018-01-11T11:07:25.451Z,11.13
2018-01-11T11:09:52.910Z,11.19
2018-01-11T11:12:20.333Z,11.23
2018-01-11T11:14:47.741Z,11.27
2018-01-11T11:17:15.161Z,11.29
2018-01-11T11:19:42.636Z,11.27
2018-01-11T11:22:10.090Z,11.34
2018-01-11T11:24:37.529Z,11.35
2018-01-11T11:27:04.977Z,11.43
2018-01-11T11:29:32.420Z,11.44
2018-01-11T11:31:59.861Z,11.48
2018-01-11T11:34:27.322Z,11.51
2018-01-11T11:36:54.781Z,11.60
2018-01-11T11:39:22.201Z,11.67
2018-01-11T11:41:49.659Z,11.76
2018-01-11T11:44:17.093Z,11.77
2018-01-11T11:46:44.509Z,11.87
2018-01-11T11:49:11.934Z,11.90
2018-01-11T11:51:39.361Z,11.97
2018-01-11T11:54:06.820Z,11.98
2018-01-11T11:56:34.254Z,11.99
2018-01-11T11:59:01.665Z,11.98
2018-01-11T12:01:29.139Z,12.00
2018-01-11T12:03:56.554Z,12.00
2018-01-11T12:06:23.969Z,12.00
2018-01-11T12:08:51.390Z,11.97
2018-01-11T12:11:18.819Z,11.97
2018-01-11T12:13:46.262Z,11.95
2018-01-11T12:16:13.678Z,11.93
2018-01-11T12:18:41.099Z,11.92
2018-01-11T12:21:08.505Z,11.83
2018-01-11T12:23:35.921Z,11.86
2018-01-11T12:26:03.345Z,11.65
2018-01-11T12:28:30.773Z,11.54
2018-01-11T12:30:58.197Z,11.45
2018-01-11T12:33:25.624Z,11.51
2018-01-11T12:35:53.041Z,11.48
2018-01-11T12:38:20.513Z,11.59
2018-01-11T12:40:48.034Z,11.63
2018-01-11T12:43:15.470Z,11.55
2018-01-11T12:45:42.890Z,11.43
2018-01-11T12:48:10.328Z,11.27
2018-01-11T12:50:37.742Z,11.26
2018-01-11T12:53:05.186Z,11.38
2018-01-11T12:55:32.674Z,11.33
2018-01-11T12:58:00.101Z,11.41
2018-01-11T13:00:27.509Z,11.40
2018-01-11T13:02:54.953Z,11.38
2018-01-11T13:05:22.406Z,11.19
2018-01-11T13:07:49.887Z,10.94
2018-01-11T13:10:17.298Z,10.81
2018-01-11T13:12:44.719Z,10.74
2018-01-11T13:15:12.164Z,10.67
2018-01-11T13:17:39.585Z,10.37
2018-01-11T13:20:07.022Z,10.31
2018-01-11T13:22:34.518Z,10.22
2018-01-11T13:25:01.933Z,10.20
2018-01-11T13:27:29.369Z,10.22
2018-01-11T13:29:56.790Z,10.27
2018-01-11T13:32:24.227Z,10.31
2018-01-11T13:34:51.645Z,10.36
2018-01-11T13:37:19.095Z,10.37
2018-01-11T13:39:46.520Z,10.49
2018-01-11T13:42:13.942Z,10.49
2018-01-11T13:44:41.367Z,10.46
2018-01-11T13:47:08.793Z,10.65
2018-01-11T13:49:36.269Z,10.71
2018-01-11T13:52:03.682Z,10.71
2018-01-11T13:54:33.025Z,10.73
2018-01-11T13:57:00.477Z,10.71
2018-01-11T13:59:27.898Z,10.70
2018-01-11T14:01:55.319Z,10.73
2018-01-11T14:04:22.745Z,10.64
2018-01-11T14:06:50.214Z,10.66
2018-01-11T14:09:17.650Z,10.53
2018-01-11T14:11:45.088Z,10.66
2018-01-11T14:14:12.512Z,10.75
2018-01-11T14:16:39.938Z,10.59
2018-01-11T14:19:07.362Z,10.66
2018-01-11T14:21:34.806Z,10.75
2018-01-11T14:24:02.245Z,10.79
2018-01-11T14:26:29.661Z,10.84
2018-01-11T14:28:57.096Z,10.88
2018-01-11T14:31:24.575Z,10.84
2018-01-11T14:33:52.017Z,10.80
2018-01-11T14:36:19.476Z,10.89
2018-01-11T14:38:46.921Z,10.93
2018-01-11T14:41:14.374Z,10.98
2018-01-11T14:43:41.788Z,11.03
2018-01-11T14:46:09.222Z,11.09
2018-01-11T14:48:36.681Z,11.09
2018-01-11T14:51:04.126Z,11.11
2018-01-11T14:53:31.561Z,11.10
2018-01-11T14:55:58.993Z,11.11
2018-01-11T14:58:26.423Z,11.09
2018-01-11T15:00:53.838Z,11.13
2018-01-11T15:03:21.249Z,11.09
2018-01-11T15:05:48.669Z,11.01
2018-01-11T15:08:16.086Z,11.02
2018-01-11T15:10:43.537Z,10.85
2018-01-11T15:13:10.981Z,10.80
2018-01-11T15:15:38.432Z,10.57
2018-01-11T15:18:05.853Z,10.55
2018-01-11T15:20:33.274Z,10.41
2018-01-11T15:23:00.695Z,10.43
2018-01-11T15:25:28.114Z,10.50
2018-01-11T15:27:55.542Z,10.37
2018-01-11T15:30:22.965Z,10.24
2018-01-11T15:32:50.373Z,10.22
2018-01-11T15:35:17.815Z,10.18
2018-01-11T15:37:45.254Z,10.17
2018-01-11T15:40:12.710Z,10.13
2018-01-11T15:42:40.208Z,10.04
2018-01-11T15:45:08.557Z,9.95
2018-01-11T15:47:36.019Z,9.96
2018-01-11T15:50:03.425Z,9.92
2018-01-11T15:52:31.150Z,9.80
2018-01-11T15:54:59.194Z,9.77
2018-01-11T15:57:26.635Z,9.85
2018-01-11T15:59:54.975Z,9.92
2018-01-11T16:02:22.358Z,9.84
2018-01-11T16:04:49.838Z,9.97
2018-01-11T16:07:17.273Z,9.85
2018-01-11T16:09:45.599Z,9.80
2018-01-11T16:12:13.034Z,9.75
2018-01-11T16:14:40.467Z,9.69
2018-01-11T16:17:07.997Z,9.67
2018-01-11T16:19:35.422Z,9.64
2018-01-11T16:22:02.825Z,9.64
2018-01-11T16:24:30.267Z,9.56
2018-01-11T16:26:57.687Z,9.59
2018-01-11T16:29:25.122Z,9.54
2018-01-11T16:31:52.531Z,9.53
2018-01-11T16:34:20.869Z,9.42
2018-01-11T16:36:48.317Z,9.40
2018-01-11T16:39:15.757Z,9.39
2018-01-11T16:41:45.149Z,9.34
2018-01-11T16:44:12.608Z,9.34
2018-01-11T16:46:40.054Z,9.33
2018-01-11T16:49:08.721Z,9.32
2018-01-11T16:51:36.133Z,9.29
2018-01-11T16:54:03.561Z,9.33
2018-01-11T16:56:34.642Z,9.30
2018-01-11T16:59:02.652Z,9.27
2018-01-11T17:01:30.841Z,9.26
2018-01-11T17:03:58.295Z,9.27
2018-01-11T17:06:25.731Z,9.29
2018-01-11T17:08:53.149Z,9.29
2018-01-11T17:11:20.605Z,9.26
2018-01-11T17:13:48.017Z,9.31
2018-01-11T17:16:15.465Z,9.37
2018-01-11T17:18:42.993Z,9.38
2018-01-11T17:21:10.490Z,9.42
2018-01-11T17:23:37.906Z,9.34
2018-01-11T17:26:05.341Z,9.39
2018-01-11T17:28:32.761Z,9.44
2018-01-11T17:31:00.182Z,9.47
2018-01-11T17:33:27.622Z,9.49
2018-01-11T17:35:55.103Z,9.45
2018-01-11T17:38:22.605Z,9.40
2018-01-11T17:40:50.006Z,9.41
2018-01-11T17:43:17.418Z,9.41
2018-01-11T17:45:44.841Z,9.39
2018-01-11T17:48:12.288Z,9.36
2018-01-11T17:50:39.718Z,9.28
2018-01-11T17:53:07.118Z,9.23
2018-01-11T17:55:34.556Z,9.28
2018-01-11T17:58:01.995Z,9.26
2018-01-11T18:00:29.414Z,9.22
2018-01-11T18:02:56.838Z,9.26
2018-01-11T18:05:24.266Z,9.22
2018-01-11T18:07:51.744Z,9.29
2018-01-11T18:10:19.173Z,9.26
2018-01-11T18:12:46.626Z,9.23
2018-01-11T18:15:14.076Z,9.24
2018-01-11T18:17:41.579Z,9.27
2018-01-11T18:20:09.645Z,9.25
2018-01-11T18:22:37.069Z,9.20
2018-01-11T18:25:04.530Z,9.20
2018-01-11T18:27:31.936Z,9.20
2018-01-11T18:29:59.376Z,9.15
2018-01-11T18:32:26.790Z,9.01
2018-01-11T18:34:54.218Z,8.97
2018-01-11T18:37:21.633Z,8.97
2018-01-11T18:39:49.054Z,9.04
2018-01-11T18:42:16.466Z,9.10
2018-01-11T18:44:43.881Z,9.14
2018-01-11T18:47:11.294Z,9.17
2018-01-11T18:49:38.716Z,9.19
2018-01-11T18:52:06.130Z,9.22
2018-01-11T18:54:33.556Z,9.24
2018-01-11T18:57:01.561Z,9.24
2018-01-11T18:59:28.978Z,9.20
2018-01-11T19:01:56.387Z,9.20
2018-01-11T19:04:24.881Z,9.20
2018-01-11T19:06:52.321Z,9.16
2018-01-11T19:09:21.582Z,9.16
2018-01-11T19:11:49.004Z,9.14
2018-01-11T19:14:16.427Z,9.13
2018-01-11T19:16:43.862Z,9.12
2018-01-11T19:19:11.280Z,9.08
2018-01-11T19:21:39.141Z,9.06
2018-01-11T19:24:07.619Z,9.14
2018-01-11T19:26:35.055Z,9.10
2018-01-11T19:29:02.556Z,9.02
2018-01-11T19:31:30.618Z,9.03
2018-01-11T19:33:58.801Z,8.97
2018-01-11T19:36:26.686Z,8.98
2018-01-11T19:38:54.722Z,9.01
2018-01-11T19:41:22.199Z,8.86
2018-01-11T19:43:50.192Z,8.92
2018-01-11T19:46:21.154Z,8.87
2018-01-11T19:48:51.435Z,8.91
2018-01-11T19:51:41.256Z,8.94
2018-01-11T19:56:52.736Z,8.91
2018-01-11T19:59:25.312Z,8.92
2018-01-11T20:01:52.733Z,8.90
2018-01-11T20:04:20.174Z,8.88
2018-01-11T20:06:47.581Z,8.85
2018-01-11T20:09:15.025Z,8.82
2018-01-11T20:11:42.437Z,8.83
2018-01-11T20:14:09.910Z,8.81
2018-01-11T20:16:37.321Z,8.85
2018-01-11T20:19:04.745Z,8.86
2018-01-11T20:21:32.172Z,8.82
2018-01-11T20:23:59.576Z,8.70
2018-01-11T20:26:33.834Z,8.68
2018-01-11T20:29:01.245Z,8.68
2018-01-11T20:31:28.665Z,8.69
2018-01-11T20:33:56.086Z,8.73
2018-01-11T20:36:23.517Z,8.78
2018-01-11T20:38:50.934Z,8.80
2018-01-11T20:41:18.341Z,8.81
2018-01-11T20:43:45.766Z,8.80
2018-01-11T20:46:13.178Z,8.81
2018-01-11T20:48:40.604Z,8.81
2018-01-11T20:51:08.046Z,8.84
2018-01-11T20:53:35.476Z,8.80
2018-01-11T20:56:02.886Z,8.79
2018-01-11T20:58:30.308Z,8.79
2018-01-11T21:00:57.721Z,8.78
2018-01-11T21:03:25.559Z,8.79
2018-01-11T21:05:52.970Z,8.82
2018-01-11T21:08:20.406Z,8.79
2018-01-11T21:10:47.829Z,8.78
2018-01-11T21:13:15.255Z,8.78
2018-01-11T21:15:42.657Z,8.77
2018-01-11T21:18:10.077Z,8.76
2018-01-11T21:20:37.497Z,8.53
2018-01-11T21:23:04.922Z,8.47
2018-01-11T21:25:32.333Z,8.47
2018-01-11T21:27:59.746Z,8.46
2018-01-11T21:30:27.168Z,8.43
2018-01-11T21:32:54.585Z,8.47
2018-01-11T21:35:21.989Z,8.48
2018-01-11T21:37:49.413Z,8.40
2018-01-11T21:40:16.829Z,8.40
2018-01-11T21:42:44.237Z,8.37
2018-01-11T21:45:11.665Z,8.38
2018-01-11T21:47:39.071Z,8.36
2018-01-11T21:50:06.486Z,8.41
2018-01-11T21:52:34.909Z,8.43
2018-01-11T21:55:03.199Z,8.47
2018-01-11T21:57:30.618Z,8.45
2018-01-11T21:59:59.366Z,8.43
2018-01-11T22:02:26.776Z,8.50
2018-01-11T22:04:54.194Z,8.55
2018-01-11T22:07:21.614Z,8.53
2018-01-11T22:09:49.025Z,8.60
2018-01-11T22:12:16.454Z,8.61
2018-01-11T22:14:43.865Z,8.60
2018-01-11T22:17:11.286Z,8.63
2018-01-11T22:19:38.699Z,8.64
2018-01-11T22:22:06.134Z,8.61
2018-01-11T22:24:33.541Z,8.61
2018-01-11T22:27:01.025Z,8.65
2018-01-11T22:29:28.434Z,8.66
2018-01-11T22:31:55.846Z,8.67
2018-01-11T22:34:23.267Z,8.64
2018-01-11T22:36:50.674Z,8.63
2018-01-11T22:39:18.114Z,8.63
2018-01-11T22:41:45.538Z,8.66
2018-01-11T22:44:12.945Z,8.62
2018-01-11T22:46:40.371Z,8.59
2018-01-11T22:49:07.786Z,8.56
2018-01-11T22:51:35.198Z,8.57
2018-01-11T22:54:02.630Z,8.53
2018-01-11T22:56:30.050Z,8.54
2018-01-11T22:58:57.469Z,8.52
2018-01-11T23:01:24.881Z,8.51
2018-01-11T23:03:52.300Z,8.51
2018-01-11T23:06:23.277Z,8.52
2018-01-11T23:08:50.710Z,8.45
2018-01-11T23:11:23.773Z,8.43
2018-01-11T23:13:51.215Z,8.39
2018-01-11T23:16:18.625Z,8.37
2018-01-11T23:18:46.046Z,8.38
2018-01-11T23:21:13.482Z,8.38
2018-01-11T23:23:40.936Z,8.37
2018-01-11T23:26:08.337Z,8.38
2018-01-11T23:28:35.753Z,8.39
2018-01-11T23:31:03.170Z,8.40
2018-01-11T23:33:30.577Z,8.34
2018-01-11T23:35:57.990Z,8.33
2018-01-11T23:38:25.407Z,8.39
2018-01-11T23:40:52.829Z,8.37
2018-01-11T23:43:20.269Z,8.41
2018-01-11T23:45:47.673Z,8.40
2018-01-11T23:48:15.103Z,8.40
2018-01-11T23:50:42.550Z,8.39
2018-01-11T23:53:09.970Z,8.36
2018-01-11T23:55:37.386Z,8.35
2018-01-11T23:58:04.803Z,8.37
